createdAt,value
2023-04-03T00:00:42.264Z,3.60
2023-04-03T00:03:15.780Z,3.60
2023-04-03T00:05:49.549Z,3.50
2023-04-03T00:08:23.290Z,3.50
2023-04-03T00:10:58.153Z,3.50
2023-04-03T00:13:31.954Z,3.40
2023-04-03T00:16:06.043Z,3.40
2023-04-03T00:18:41.211Z,3.40
2023-04-03T00:21:15.744Z,3.40
2023-04-03T00:23:49.208Z,3.40
2023-04-03T00:26:24.074Z,3.40
2023-04-03T00:28:57.591Z,3.40
2023-04-03T00:31:31.153Z,3.40
2023-04-03T00:34:04.735Z,3.40
2023-04-03T00:36:38.378Z,3.30
2023-04-03T00:39:11.906Z,3.30
2023-04-03T00:41:47.031Z,3.30
2023-04-03T00:44:44.336Z,3.30
2023-04-03T00:47:20.800Z,3.30
2023-04-03T00:49:55.816Z,3.30
2023-04-03T00:52:31.846Z,3.30
2023-04-03T00:55:10.522Z,3.30
2023-04-03T00:57:44.669Z,3.30
2023-04-03T01:00:23.434Z,3.30
2023-04-03T01:02:58.498Z,3.30
2023-04-03T01:05:32.936Z,3.20
2023-04-03T01:08:07.674Z,3.20
2023-04-03T01:10:41.150Z,3.20
2023-04-03T01:13:23.909Z,3.20
2023-04-03T01:15:58.290Z,3.20
2023-04-03T01:18:34.302Z,3.20
2023-04-03T01:21:32.211Z,3.20
2023-04-03T01:24:24.230Z,3.20
2023-04-03T01:26:58.114Z,3.20
2023-04-03T01:29:31.772Z,3.20
2023-04-03T01:32:06.956Z,3.30
2023-04-03T01:34:40.747Z,3.30
2023-04-03T01:37:14.171Z,3.30
2023-04-03T01:39:47.643Z,3.20
2023-04-03T01:42:21.155Z,3.20
2023-04-03T01:44:54.779Z,3.20
2023-04-03T01:47:29.759Z,3.20
2023-04-03T01:50:03.634Z,3.10
2023-04-03T01:52:39.471Z,3.10
2023-04-03T01:55:13.130Z,3.10
2023-04-03T01:57:46.691Z,3.00
2023-04-03T02:00:20.633Z,3.00
2023-04-03T02:02:55.637Z,3.00
2023-04-03T02:05:29.151Z,3.00
2023-04-03T02:08:02.733Z,2.90
2023-04-03T02:10:36.452Z,2.90
2023-04-03T02:13:10.069Z,2.90
2023-04-03T02:15:43.657Z,2.90
2023-04-03T02:18:19.171Z,2.90
2023-04-03T02:20:52.642Z,2.90
2023-04-03T02:23:26.133Z,2.80
2023-04-03T02:26:07.113Z,2.90
2023-04-03T02:28:42.087Z,2.90
2023-04-03T02:31:15.866Z,2.80
2023-04-03T02:33:52.500Z,2.70
2023-04-03T02:36:26.081Z,2.80
2023-04-03T02:39:04.671Z,2.70
2023-04-03T02:41:38.108Z,2.70
2023-04-03T02:44:17.106Z,2.70
2023-04-03T02:46:50.572Z,2.70
2023-04-03T02:49:25.894Z,2.70
2023-04-03T02:51:59.492Z,2.70
2023-04-03T02:54:32.990Z,2.70
2023-04-03T02:57:10.938Z,2.70
2023-04-03T02:59:45.333Z,2.70
2023-04-03T03:02:19.539Z,2.70
2023-04-03T03:04:54.568Z,2.70
2023-04-03T03:07:28.019Z,2.70
2023-04-03T03:10:01.522Z,2.70
2023-04-03T03:12:34.976Z,2.70
2023-04-03T03:15:09.647Z,2.70
2023-04-03T03:17:43.333Z,2.70
2023-04-03T03:20:18.486Z,2.70
2023-04-03T03:22:52.193Z,2.70
2023-04-03T03:25:25.836Z,2.70
2023-04-03T03:27:59.307Z,2.60
2023-04-03T03:30:33.065Z,2.60
2023-04-03T03:33:06.577Z,2.50
2023-04-03T03:35:41.990Z,2.50
2023-04-03T03:38:15.500Z,2.50
2023-04-03T03:40:50.727Z,2.50
2023-04-03T03:43:26.483Z,2.50
2023-04-03T03:46:01.227Z,2.50
2023-04-03T03:48:35.303Z,2.50
2023-04-03T03:51:10.576Z,2.50
2023-04-03T03:53:45.824Z,2.50
2023-04-03T03:56:23.409Z,2.50
2023-04-03T03:58:58.234Z,2.50
2023-04-03T04:01:31.849Z,2.50
2023-04-03T04:04:05.610Z,2.50
2023-04-03T04:06:40.664Z,2.50
2023-04-03T04:09:16.273Z,2.50
2023-04-03T04:11:49.851Z,2.50
2023-04-03T04:14:24.546Z,2.50
2023-04-03T04:16:59.019Z,2.40
2023-04-03T04:19:35.303Z,2.40
2023-04-03T04:22:10.205Z,2.40
2023-04-03T04:24:43.799Z,2.30
2023-04-03T04:27:17.836Z,2.30
2023-04-03T04:29:51.552Z,2.30
2023-04-03T04:32:26.034Z,2.30
2023-04-03T04:34:59.952Z,2.20
2023-04-03T04:37:36.265Z,2.20
2023-04-03T04:40:11.234Z,2.20
2023-04-03T04:42:45.072Z,2.20
2023-04-03T04:45:18.948Z,2.20
2023-04-03T04:47:56.910Z,2.20
2023-04-03T04:50:32.044Z,2.20
2023-04-03T04:53:06.940Z,2.20
2023-04-03T04:55:40.498Z,2.30
2023-04-03T04:58:14.104Z,2.30
2023-04-03T05:00:48.037Z,2.30
2023-04-03T05:03:21.572Z,2.30
2023-04-03T05:05:55.362Z,2.30
2023-04-03T05:08:30.441Z,2.30
2023-04-03T05:11:03.923Z,2.30
2023-04-03T05:13:38.332Z,2.30
2023-04-03T05:16:12.450Z,2.30
2023-04-03T05:18:46.027Z,2.30
2023-04-03T05:21:27.125Z,2.30
2023-04-03T05:24:04.489Z,2.30
2023-04-03T05:26:40.652Z,2.40
2023-04-03T05:29:15.410Z,2.40
2023-04-03T05:31:51.215Z,2.40
2023-04-03T05:34:24.784Z,2.40
2023-04-03T05:37:00.154Z,2.40
2023-04-03T05:39:36.625Z,2.40
2023-04-03T05:42:12.655Z,2.50
2023-04-03T05:44:48.180Z,2.50
2023-04-03T05:47:21.725Z,2.50
2023-04-03T05:49:55.603Z,2.50
2023-04-03T05:52:30.923Z,2.60
2023-04-03T05:55:07.217Z,2.60
2023-04-03T05:57:42.115Z,2.60
2023-04-03T06:00:17.449Z,2.60
2023-04-03T06:02:59.314Z,2.60
2023-04-03T06:05:33.086Z,2.60
2023-04-03T06:08:06.811Z,2.60
2023-04-03T06:10:41.709Z,2.50
2023-04-03T06:13:15.232Z,2.50
2023-04-03T06:15:49.653Z,2.50
2023-04-03T06:18:23.628Z,2.40
2023-04-03T06:20:57.433Z,2.30
2023-04-03T06:23:30.963Z,2.30
2023-04-03T06:26:06.592Z,2.20
2023-04-03T06:28:40.037Z,2.20
2023-04-03T06:31:13.564Z,2.20
2023-04-03T06:33:47.805Z,2.20
2023-04-03T06:36:22.899Z,2.30
2023-04-03T06:38:56.533Z,2.20
2023-04-03T06:41:31.480Z,2.30
2023-04-03T06:44:05.162Z,2.20
2023-04-03T06:46:39.239Z,2.20
2023-04-03T06:49:12.993Z,2.30
2023-04-03T06:51:46.440Z,2.30
2023-04-03T06:54:20.404Z,2.30
2023-04-03T06:56:55.301Z,2.40
2023-04-03T06:59:29.019Z,2.40
2023-04-03T07:02:02.575Z,2.40
2023-04-03T07:04:37.350Z,2.40
2023-04-03T07:07:11.241Z,2.50
2023-04-03T07:09:45.334Z,2.50
2023-04-03T07:12:21.753Z,2.40
2023-04-03T07:14:55.256Z,2.50
2023-04-03T07:17:28.757Z,2.50
2023-04-03T07:20:02.357Z,2.50
2023-04-03T07:22:38.968Z,2.50
2023-04-03T07:25:12.426Z,2.50
2023-04-03T07:27:47.312Z,2.60
2023-04-03T07:30:20.762Z,2.50
2023-04-03T07:32:54.267Z,2.60
2023-04-03T07:35:28.077Z,2.70
2023-04-03T07:38:02.523Z,2.70
2023-04-03T07:40:36.772Z,2.70
2023-04-03T07:43:11.756Z,2.70
2023-04-03T07:45:46.170Z,2.70
2023-04-03T07:48:25.843Z,2.70
2023-04-03T07:51:02.680Z,2.80
2023-04-03T07:53:36.216Z,2.90
2023-04-03T07:56:10.456Z,3.00
2023-04-03T07:58:45.416Z,3.00
2023-04-03T08:01:18.931Z,3.00
2023-04-03T08:03:52.928Z,3.00
2023-04-03T08:06:42.057Z,3.00
2023-04-03T08:09:20.255Z,2.90
2023-04-03T08:11:54.636Z,2.90
2023-04-03T08:14:32.275Z,2.80
2023-04-03T08:17:06.518Z,2.80
2023-04-03T08:19:40.670Z,2.80
2023-04-03T08:22:14.158Z,2.90
2023-04-03T08:24:58.654Z,3.00
2023-04-03T08:27:35.982Z,2.90
2023-04-03T08:30:11.912Z,3.00
2023-04-03T08:32:45.965Z,3.10
2023-04-03T08:35:21.022Z,3.20
2023-04-03T08:37:54.682Z,3.30
2023-04-03T08:40:28.170Z,3.30
2023-04-03T08:43:15.953Z,3.30
2023-04-03T08:45:54.437Z,3.30
2023-04-03T08:48:32.856Z,3.40
2023-04-03T08:51:13.941Z,3.40
2023-04-03T08:53:56.324Z,3.40
2023-04-03T08:56:31.078Z,3.50
2023-04-03T08:59:11.507Z,3.50
2023-04-03T09:01:47.318Z,3.50
2023-04-03T09:04:21.048Z,3.50
2023-04-03T09:07:01.101Z,3.50
2023-04-03T09:09:39.663Z,3.60
2023-04-03T09:12:21.979Z,3.70
2023-04-03T09:15:04.142Z,3.70
2023-04-03T09:17:48.632Z,3.70
2023-04-03T09:20:30.225Z,3.70
2023-04-03T09:23:08.212Z,3.80
2023-04-03T09:25:42.617Z,3.60
2023-04-03T09:28:16.245Z,3.70
2023-04-03T09:30:49.870Z,3.70
2023-04-03T09:33:25.532Z,3.70
2023-04-03T09:35:59.020Z,3.70
2023-04-03T09:38:35.003Z,3.60
2023-04-03T09:41:15.773Z,3.70
2023-04-03T09:43:56.931Z,3.70
2023-04-03T09:46:35.210Z,3.70
2023-04-03T09:49:13.885Z,3.70
2023-04-03T09:51:48.031Z,3.90
2023-04-03T09:54:34.087Z,3.90
2023-04-03T09:57:11.196Z,4.10
2023-04-03T09:59:59.394Z,4.00
2023-04-03T10:02:41.171Z,3.90
2023-04-03T10:05:33.318Z,4.00
2023-04-03T10:08:12.094Z,3.90
2023-04-03T10:10:48.025Z,4.00
2023-04-03T10:13:22.900Z,3.90
2023-04-03T10:16:02.703Z,3.90
2023-04-03T10:18:45.655Z,4.00
2023-04-03T10:21:36.452Z,4.10
2023-04-03T10:24:15.940Z,4.00
2023-04-03T10:26:57.231Z,4.00
2023-04-03T10:29:42.601Z,3.90
2023-04-03T10:32:42.330Z,3.70
2023-04-03T10:35:24.848Z,3.70
2023-04-03T10:38:06.724Z,3.50
2023-04-03T10:40:50.737Z,3.60
2023-04-03T10:43:31.464Z,3.60
2023-04-03T10:46:08.235Z,3.60
2023-04-03T10:49:06.567Z,3.60
2023-04-03T10:51:45.964Z,3.60
2023-04-03T10:54:25.524Z,3.60
2023-04-03T10:57:11.745Z,3.80
2023-04-03T10:59:49.655Z,3.80
2023-04-03T11:02:31.077Z,3.90
2023-04-03T11:05:10.819Z,4.00
2023-04-03T11:07:49.813Z,4.10
2023-04-03T11:10:30.957Z,4.10
2023-04-03T11:13:13.328Z,4.20
2023-04-03T11:15:48.593Z,4.20
2023-04-03T11:18:27.898Z,4.20
2023-04-03T11:21:06.239Z,4.10
2023-04-03T11:23:49.540Z,4.10
2023-04-03T11:26:29.877Z,4.20
2023-04-03T11:29:09.072Z,4.10
2023-04-03T11:31:58.791Z,4.10
2023-04-03T11:34:39.276Z,4.20
2023-04-03T11:37:23.310Z,4.30
2023-04-03T11:40:00.025Z,4.50
2023-04-03T11:42:39.001Z,4.40
2023-04-03T11:45:30.572Z,4.40
2023-04-03T11:48:17.105Z,4.40
2023-04-03T11:50:57.803Z,4.30
2023-04-03T11:53:38.606Z,4.30
2023-04-03T11:56:31.568Z,4.30
2023-04-03T11:59:23.582Z,4.30
2023-04-03T12:01:59.348Z,4.00
2023-04-03T12:04:33.283Z,4.10
2023-04-03T12:07:20.911Z,4.20
2023-04-03T12:10:01.575Z,4.00
2023-04-03T12:12:41.554Z,3.80
2023-04-03T12:15:46.434Z,3.80
2023-04-03T12:19:04.376Z,3.70
2023-04-03T12:22:10.644Z,3.60
2023-04-03T12:24:45.634Z,3.60
2023-04-03T12:27:42.955Z,3.50
2023-04-03T12:30:23.522Z,3.50
2023-04-03T12:33:26.284Z,3.30
2023-04-03T12:36:10.345Z,3.20
2023-04-03T12:39:04.288Z,3.30
2023-04-03T12:41:40.845Z,3.20
2023-04-03T12:44:36.032Z,3.20
2023-04-03T12:47:25.057Z,3.20
2023-04-03T12:50:01.283Z,3.20
2023-04-03T12:52:40.648Z,3.10
2023-04-03T12:55:21.179Z,3.10
2023-04-03T12:57:54.789Z,3.10
2023-04-03T13:00:36.400Z,3.00
2023-04-03T13:03:24.944Z,2.90
2023-04-03T13:06:04.390Z,2.90
2023-04-03T13:08:37.900Z,2.80
2023-04-03T13:11:13.788Z,2.70
2023-04-03T13:13:58.124Z,2.70
2023-04-03T13:16:32.823Z,2.70
2023-04-03T13:19:06.502Z,2.70
2023-04-03T13:21:41.556Z,2.70
2023-04-03T13:24:16.014Z,2.70
2023-04-03T13:26:49.709Z,2.70
2023-04-03T13:29:31.000Z,2.70
2023-04-03T13:32:07.220Z,2.60
2023-04-03T13:34:47.031Z,2.60
2023-04-03T13:37:28.851Z,2.60
2023-04-03T13:40:11.983Z,2.60
2023-04-03T13:42:45.544Z,2.50
2023-04-03T13:45:24.869Z,2.50
2023-04-03T13:48:22.172Z,2.50
2023-04-03T13:51:03.528Z,2.60
2023-04-03T13:53:46.200Z,2.50
2023-04-03T13:56:21.706Z,2.40
2023-04-03T13:58:58.760Z,2.30
2023-04-03T14:01:42.721Z,2.30
2023-04-03T14:04:20.504Z,2.30
2023-04-03T14:06:54.533Z,2.30
2023-04-03T14:09:30.023Z,2.20
2023-04-03T14:12:11.317Z,2.20
2023-04-03T14:14:51.636Z,2.30
2023-04-03T14:17:27.725Z,2.30
2023-04-03T14:20:02.155Z,2.30
2023-04-03T14:22:36.455Z,2.20
2023-04-03T14:25:11.764Z,2.10
2023-04-03T14:27:47.715Z,2.00
2023-04-03T14:30:24.018Z,2.00
2023-04-03T14:32:58.260Z,1.90
2023-04-03T14:35:32.088Z,2.00
2023-04-03T14:38:14.885Z,2.00
2023-04-03T14:40:49.526Z,2.00
2023-04-03T14:43:23.381Z,1.90
2023-04-03T14:45:57.885Z,2.00
2023-04-03T14:48:32.598Z,2.00
2023-04-03T14:51:06.513Z,2.00
2023-04-03T14:53:40.347Z,2.00
2023-04-03T14:56:16.682Z,2.00
2023-04-03T14:58:51.694Z,1.90
2023-04-03T15:01:25.865Z,1.90
2023-04-03T15:03:59.640Z,1.90
2023-04-03T15:06:35.270Z,1.80
2023-04-03T15:09:19.212Z,1.80
2023-04-03T15:11:55.948Z,1.70
2023-04-03T15:14:36.618Z,1.60
2023-04-03T15:17:17.158Z,1.60
2023-04-03T15:19:50.634Z,1.60
2023-04-03T15:22:24.112Z,1.50
2023-04-03T15:24:57.531Z,1.50
2023-04-03T15:27:32.399Z,1.50
2023-04-03T15:30:06.574Z,1.50
2023-04-03T15:32:40.066Z,1.50
2023-04-03T15:35:13.786Z,1.50
2023-04-03T15:37:47.520Z,1.50
2023-04-03T15:40:21.512Z,1.40
2023-04-03T15:42:56.584Z,1.40
2023-04-03T15:45:32.844Z,1.40
2023-04-03T15:48:07.700Z,1.40
2023-04-03T15:50:41.756Z,1.40
2023-04-03T15:53:15.517Z,1.40
2023-04-03T15:55:49.230Z,1.40
2023-04-03T15:58:24.218Z,1.40
2023-04-03T16:00:57.716Z,1.40
2023-04-03T16:03:32.020Z,1.50
2023-04-03T16:06:05.752Z,1.40
2023-04-03T16:08:39.510Z,1.40
2023-04-03T16:11:13.067Z,1.40
2023-04-03T16:13:47.967Z,1.40
2023-04-03T16:16:21.923Z,1.40
2023-04-03T16:18:56.703Z,1.40
2023-04-03T16:21:30.836Z,1.40
2023-04-03T16:24:05.370Z,1.40
2023-04-03T16:26:38.879Z,1.40
2023-04-03T16:29:13.782Z,1.50
2023-04-03T16:31:47.616Z,1.50
2023-04-03T16:34:21.461Z,1.50
2023-04-03T16:36:55.162Z,1.50
2023-04-03T16:39:28.858Z,1.50
2023-04-03T16:42:02.391Z,1.40
2023-04-03T16:44:37.376Z,1.30
2023-04-03T16:47:11.825Z,1.30
2023-04-03T16:49:45.570Z,1.30
2023-04-03T16:52:19.141Z,1.30
2023-04-03T16:54:56.317Z,1.30
2023-04-03T16:57:30.025Z,1.30
2023-04-03T17:00:06.444Z,1.30
2023-04-03T17:02:40.022Z,1.40
2023-04-03T17:05:13.540Z,1.30
2023-04-03T17:07:47.060Z,1.40
2023-04-03T17:10:20.663Z,1.40
2023-04-03T17:12:54.163Z,1.40
2023-04-03T17:15:29.106Z,1.40
2023-04-03T17:18:02.956Z,1.40
2023-04-03T17:20:38.760Z,1.40
2023-04-03T17:23:12.280Z,1.40
2023-04-03T17:25:45.793Z,1.30
2023-04-03T17:28:19.588Z,1.40
2023-04-03T17:30:54.494Z,1.40
2023-04-03T17:33:31.195Z,1.30
2023-04-03T17:36:06.268Z,1.30
2023-04-03T17:38:39.790Z,1.30
2023-04-03T17:41:13.369Z,1.30
2023-04-03T17:43:46.884Z,1.30
2023-04-03T17:46:21.865Z,1.30
2023-04-03T17:48:55.546Z,1.30
2023-04-03T17:51:29.450Z,1.30
2023-04-03T17:54:03.195Z,1.40
2023-04-03T17:56:36.717Z,1.20
2023-04-03T17:59:10.162Z,1.20
2023-04-03T18:01:46.755Z,1.20
2023-04-03T18:04:20.622Z,1.20
2023-04-03T18:06:56.478Z,1.20
2023-04-03T18:09:33.605Z,1.20
2023-04-03T18:12:09.862Z,1.30
2023-04-03T18:14:43.480Z,1.20
2023-04-03T18:17:19.523Z,1.20
2023-04-03T18:19:52.989Z,1.20
2023-04-03T18:22:26.851Z,1.20
2023-04-03T18:25:00.653Z,1.10
2023-04-03T18:27:34.194Z,1.10
2023-04-03T18:30:13.398Z,1.10
2023-04-03T18:32:48.917Z,1.10
2023-04-03T18:35:22.369Z,1.00
2023-04-03T18:37:55.880Z,1.10
2023-04-03T18:40:29.635Z,1.10
2023-04-03T18:43:04.302Z,1.10
2023-04-03T18:45:37.784Z,1.00
2023-04-03T18:48:12.650Z,1.00
2023-04-03T18:50:46.468Z,1.00
2023-04-03T18:53:19.978Z,1.00
2023-04-03T18:55:53.477Z,1.00
2023-04-03T18:58:27.350Z,1.00
2023-04-03T19:01:01.434Z,1.00
2023-04-03T19:03:38.084Z,1.00
2023-04-03T19:06:11.846Z,1.00
2023-04-03T19:08:45.662Z,1.00
2023-04-03T19:11:19.409Z,0.90
2023-04-03T19:14:10.594Z,1.00
2023-04-03T19:16:46.646Z,1.00
2023-04-03T19:19:21.607Z,0.90
2023-04-03T19:21:55.095Z,1.00
2023-04-03T19:24:28.588Z,0.90
2023-04-03T19:27:02.266Z,0.90
2023-04-03T19:29:35.819Z,0.90
2023-04-03T19:32:10.743Z,0.90
2023-04-03T19:34:46.876Z,0.90
2023-04-03T19:37:20.583Z,0.90
2023-04-03T19:39:54.286Z,0.90
2023-04-03T19:42:30.024Z,0.90
2023-04-03T19:45:03.609Z,0.90
2023-04-03T19:47:37.621Z,0.90
2023-04-03T19:50:13.048Z,1.00
2023-04-03T19:52:46.549Z,0.90
2023-04-03T19:55:20.002Z,0.90
2023-04-03T19:57:53.662Z,0.90
2023-04-03T20:00:27.827Z,1.00
2023-04-03T20:03:01.780Z,1.00
2023-04-03T20:05:36.813Z,1.00
2023-04-03T20:08:10.532Z,0.90
2023-04-03T20:10:44.047Z,0.90
2023-04-03T20:13:17.558Z,0.90
2023-04-03T20:15:51.186Z,0.90
2023-04-03T20:18:25.243Z,0.90
2023-04-03T20:21:02.768Z,0.90
2023-04-03T20:23:37.285Z,0.90
2023-04-03T20:26:15.586Z,0.90
2023-04-03T20:28:49.493Z,0.90
2023-04-03T20:31:24.245Z,0.90
2023-04-03T20:33:57.999Z,0.80
2023-04-03T20:36:33.641Z,0.80
2023-04-03T20:39:07.410Z,0.80
2023-04-03T20:41:41.438Z,0.80
2023-04-03T20:44:17.708Z,0.80
2023-04-03T20:46:53.832Z,0.80
2023-04-03T20:49:27.664Z,0.80
2023-04-03T20:52:04.868Z,0.80
2023-04-03T20:54:39.595Z,0.80
2023-04-03T20:57:14.588Z,0.70
2023-04-03T20:59:48.436Z,0.70
2023-04-03T21:02:21.973Z,0.70
2023-04-03T21:04:56.609Z,0.70
2023-04-03T21:08:07.225Z,0.60
2023-04-03T21:11:17.704Z,0.60
2023-04-03T21:14:30.769Z,0.50
2023-04-03T21:17:03.984Z,0.50
2023-04-03T21:19:45.986Z,0.40
2023-04-03T21:22:21.839Z,0.40
2023-04-03T21:24:55.426Z,0.40
2023-04-03T21:27:29.831Z,0.30
2023-04-03T21:30:06.452Z,0.30
2023-04-03T21:32:39.990Z,0.30
2023-04-03T21:35:15.081Z,0.30
2023-04-03T21:37:48.528Z,0.20
2023-04-03T21:40:22.193Z,0.20
2023-04-03T21:42:56.034Z,0.20
2023-04-03T21:45:29.647Z,0.10
2023-04-03T21:48:04.002Z,0.10
2023-04-03T21:50:39.060Z,0.10
2023-04-03T21:53:12.778Z,0.00
2023-04-03T21:55:54.426Z,0.00
2023-04-03T21:58:34.541Z,0.00
2023-04-03T22:01:11.896Z,0.00
2023-04-03T22:03:46.975Z,0.00
2023-04-03T22:06:21.876Z,0.00
2023-04-03T22:08:57.007Z,0.00
2023-04-03T22:11:30.612Z,0.00
2023-04-03T22:14:04.080Z,0.00
2023-04-03T22:16:39.974Z,0.00
2023-04-03T22:19:13.716Z,0.00
2023-04-03T22:21:48.624Z,0.10
2023-04-03T22:24:22.099Z,0.10
2023-04-03T22:26:56.341Z,0.10
2023-04-03T22:29:30.091Z,0.10
2023-04-03T22:32:03.528Z,0.10
2023-04-03T22:34:38.227Z,0.20
2023-04-03T22:37:13.071Z,0.20
2023-04-03T22:39:46.986Z,0.20
2023-04-03T22:42:20.727Z,0.30
2023-04-03T22:44:54.376Z,0.30
2023-04-03T22:47:27.965Z,0.30
2023-04-03T22:50:01.412Z,0.30
2023-04-03T22:52:36.434Z,0.30
2023-04-03T22:55:19.068Z,0.30
2023-04-03T22:57:53.052Z,0.30
2023-04-03T23:00:27.813Z,0.40
2023-04-03T23:03:02.068Z,0.40
2023-04-03T23:05:35.546Z,0.40
2023-04-03T23:08:10.428Z,0.40
2023-04-03T23:10:43.936Z,0.40
2023-04-03T23:13:17.411Z,0.50
2023-04-03T23:15:54.637Z,0.40
2023-04-03T23:18:29.580Z,0.50
2023-04-03T23:21:04.371Z,0.50
2023-04-03T23:23:39.549Z,0.50
2023-04-03T23:26:13.065Z,0.50
2023-04-03T23:28:46.513Z,0.50
2023-04-03T23:31:19.954Z,0.50
2023-04-03T23:33:53.418Z,0.50
2023-04-03T23:36:27.291Z,0.50
2023-04-03T23:39:02.132Z,0.50
2023-04-03T23:41:35.622Z,0.50
2023-04-03T23:44:09.067Z,0.50
2023-04-03T23:46:42.538Z,0.50
2023-04-03T23:49:16.534Z,0.50
2023-04-03T23:51:50.198Z,0.50
2023-04-03T23:54:25.161Z,0.50
2023-04-03T23:56:59.861Z,0.50
2023-04-03T23:59:33.417Z,0.50
